createdAt,value
2023-02-21T00:00:07.196Z,99669.09
2023-02-21T00:03:18.327Z,99673.31
2023-02-21T00:06:04.381Z,99674.16
2023-02-21T00:08:49.900Z,99669.13
2023-02-21T00:11:35.951Z,99667.19
2023-02-21T00:14:21.875Z,99660.22
2023-02-21T00:17:07.591Z,99654.22
2023-02-21T00:19:53.459Z,99656.78
2023-02-21T00:22:39.241Z,99656.78
2023-02-21T00:25:24.818Z,99660.00
2023-02-21T00:28:10.797Z,99662.75
2023-02-21T00:30:56.770Z,99663.81
2023-02-21T00:33:42.867Z,99655.88
2023-02-21T00:36:28.673Z,99662.41
2023-02-21T00:39:14.657Z,99659.88
2023-02-21T00:42:00.551Z,99654.41
2023-02-21T00:44:46.112Z,99657.97
2023-02-21T00:47:31.602Z,99652.72
2023-02-21T00:50:17.610Z,99658.00
2023-02-21T00:53:03.314Z,99650.25
2023-02-21T00:55:49.602Z,99652.78
2023-02-21T00:58:35.133Z,99655.28
2023-02-21T01:01:20.716Z,99642.00
2023-02-21T01:04:06.470Z,99641.03
2023-02-21T01:06:52.296Z,99648.56
2023-02-21T01:09:37.985Z,99639.78
2023-02-21T01:12:24.026Z,99641.06
2023-02-21T01:15:09.541Z,99642.31
2023-02-21T01:17:55.427Z,99643.31
2023-02-21T01:20:40.948Z,99642.31
2023-02-21T01:23:26.630Z,99633.06
2023-02-21T01:26:12.237Z,99643.06
2023-02-21T01:29:00.059Z,99650.31
2023-02-21T01:31:45.741Z,99648.28
2023-02-21T01:34:32.962Z,99650.03
2023-02-21T01:37:20.609Z,99645.50
2023-02-21T01:40:08.552Z,99635.22
2023-02-21T01:42:56.919Z,99632.69
2023-02-21T01:45:43.108Z,99619.41
2023-02-21T01:48:37.342Z,99628.47
2023-02-21T01:51:24.137Z,99622.94
2023-02-21T01:54:11.214Z,99629.44
2023-02-21T01:56:59.728Z,99620.94
2023-02-21T01:59:45.407Z,99624.91
2023-02-21T02:02:50.218Z,99631.44
2023-02-21T02:05:36.778Z,99625.22
2023-02-21T02:08:22.989Z,99621.19
2023-02-21T02:11:14.634Z,99633.28
2023-02-21T02:14:03.305Z,99626.56
2023-02-21T02:16:36.474Z,99619.50
2023-02-21T02:19:22.176Z,99614.91
2023-02-21T02:21:58.337Z,99617.13
2023-02-21T02:24:34.394Z,99618.41
2023-02-21T02:27:01.178Z,99626.34
2023-02-21T02:29:32.733Z,99611.47
2023-02-21T02:32:06.053Z,99615.25
2023-02-21T02:34:39.732Z,99615.94
2023-02-21T02:37:15.211Z,99613.16
2023-02-21T02:39:56.241Z,99611.59
2023-02-21T02:42:29.182Z,99606.91
2023-02-21T02:45:15.074Z,99609.44
2023-02-21T02:47:44.598Z,99612.47
2023-02-21T02:50:13.163Z,99604.94
2023-02-21T02:52:49.600Z,99597.91
2023-02-21T02:55:39.386Z,99588.88
2023-02-21T02:58:09.771Z,99576.88
2023-02-21T03:00:38.784Z,99585.19
2023-02-21T03:03:15.946Z,99576.94
2023-02-21T03:05:49.260Z,99581.66
2023-02-21T03:08:16.257Z,99572.16
2023-02-21T03:10:52.519Z,99566.91
2023-02-21T03:13:30.674Z,99575.22
2023-02-21T03:16:13.075Z,99576.75
2023-02-21T03:18:42.795Z,99561.97
2023-02-21T03:21:16.919Z,99564.25
2023-02-21T03:23:47.264Z,99561.94
2023-02-21T03:26:15.307Z,99559.69
2023-02-21T03:28:46.805Z,99566.44
2023-02-21T03:31:18.546Z,99563.72
2023-02-21T03:33:45.577Z,99572.78
2023-02-21T03:36:16.779Z,99573.56
2023-02-21T03:38:43.683Z,99564.81
2023-02-21T03:41:12.407Z,99567.38
2023-02-21T03:43:40.088Z,99574.63
2023-02-21T03:46:07.444Z,99579.88
2023-02-21T03:48:36.045Z,99585.38
2023-02-21T03:51:16.381Z,99580.03
2023-02-21T03:53:43.379Z,99572.00
2023-02-21T03:56:12.296Z,99576.53
2023-02-21T03:59:04.575Z,99569.78
2023-02-21T04:01:32.426Z,99576.75
2023-02-21T04:04:00.824Z,99581.34
2023-02-21T04:06:28.562Z,99579.13
2023-02-21T04:08:56.552Z,99585.41
2023-02-21T04:11:25.930Z,99586.69
2023-02-21T04:13:53.905Z,99593.47
2023-02-21T04:16:21.150Z,99589.72
2023-02-21T04:18:51.185Z,99594.47
2023-02-21T04:21:21.845Z,99597.22
2023-02-21T04:23:52.924Z,99601.00
2023-02-21T04:26:21.969Z,99593.72
2023-02-21T04:28:51.245Z,99593.69
2023-02-21T04:31:19.062Z,99593.44
2023-02-21T04:33:46.059Z,99598.94
2023-02-21T04:36:21.583Z,99608.97
2023-02-21T04:38:51.915Z,99597.19
2023-02-21T04:41:19.591Z,99608.16
2023-02-21T04:43:46.818Z,99602.91
2023-02-21T04:46:17.395Z,99603.13
2023-02-21T04:48:45.424Z,99599.59
2023-02-21T04:51:15.375Z,99598.28
2023-02-21T04:53:47.034Z,99595.72
2023-02-21T04:56:14.596Z,99598.44
2023-02-21T04:58:45.695Z,99597.91
2023-02-21T05:01:14.742Z,99600.16
2023-02-21T05:03:41.905Z,99603.69
2023-02-21T05:06:09.086Z,99604.91
2023-02-21T05:08:36.676Z,99596.94
2023-02-21T05:11:08.821Z,99601.72
2023-02-21T05:13:35.737Z,99593.88
2023-02-21T05:16:02.900Z,99590.63
2023-02-21T05:18:29.810Z,99584.63
2023-02-21T05:20:57.618Z,99584.16
2023-02-21T05:23:35.801Z,99582.13
2023-02-21T05:26:08.259Z,99579.13
2023-02-21T05:28:38.088Z,99579.38
2023-02-21T05:31:05.512Z,99574.38
2023-02-21T05:33:33.085Z,99579.13
2023-02-21T05:36:00.238Z,99580.59
2023-02-21T05:38:27.531Z,99572.81
2023-02-21T05:40:54.687Z,99574.56
2023-02-21T05:43:21.901Z,99582.66
2023-02-21T05:45:49.168Z,99580.38
2023-02-21T05:48:16.360Z,99578.66
2023-02-21T05:50:45.077Z,99573.19
2023-02-21T05:53:12.076Z,99578.69
2023-02-21T05:55:39.318Z,99578.44
2023-02-21T05:58:06.334Z,99580.94
2023-02-21T06:00:33.868Z,99579.19
2023-02-21T06:03:02.467Z,99580.94
2023-02-21T06:05:31.859Z,99583.16
2023-02-21T06:07:59.668Z,99588.19
2023-02-21T06:10:26.888Z,99594.41
2023-02-21T06:12:53.774Z,99600.94
2023-02-21T06:15:20.938Z,99596.34
2023-02-21T06:17:47.785Z,99603.34
2023-02-21T06:20:16.854Z,99605.13
2023-02-21T06:22:47.443Z,99603.56
2023-02-21T06:25:14.623Z,99598.53
2023-02-21T06:27:41.626Z,99605.22
2023-02-21T06:30:11.223Z,99624.50
2023-02-21T06:32:38.114Z,99620.94
2023-02-21T06:35:05.396Z,99624.41
2023-02-21T06:37:32.292Z,99632.66
2023-02-21T06:39:59.452Z,99627.81
2023-02-21T06:42:26.660Z,99635.78
2023-02-21T06:44:53.824Z,99648.47
2023-02-21T06:47:23.125Z,99649.44
2023-02-21T06:49:50.280Z,99658.78
2023-02-21T06:52:18.203Z,99653.59
2023-02-21T06:54:46.079Z,99664.47
2023-02-21T06:57:13.048Z,99670.78
2023-02-21T06:59:41.462Z,99673.44
2023-02-21T07:02:15.274Z,99678.53
2023-02-21T07:04:42.723Z,99682.97
2023-02-21T07:07:09.753Z,99686.72
2023-02-21T07:09:37.008Z,99700.00
2023-02-21T07:12:06.662Z,99709.16
2023-02-21T07:14:34.019Z,99716.84
2023-02-21T07:17:00.920Z,99714.03
2023-02-21T07:19:28.228Z,99710.66
2023-02-21T07:21:57.802Z,99715.97
2023-02-21T07:24:25.012Z,99723.69
2023-02-21T07:26:52.088Z,99710.97
2023-02-21T07:29:19.513Z,99713.78
2023-02-21T07:31:46.451Z,99722.41
2023-02-21T07:34:16.877Z,99715.03
2023-02-21T07:36:44.557Z,99715.84
2023-02-21T07:39:12.122Z,99715.75
2023-02-21T07:41:39.021Z,99725.34
2023-02-21T07:44:12.019Z,99731.25
2023-02-21T07:46:42.180Z,99731.94
2023-02-21T07:49:11.904Z,99732.09
2023-02-21T07:51:38.844Z,99735.66
2023-02-21T07:54:06.117Z,99738.13
2023-02-21T07:56:33.064Z,99736.53
2023-02-21T07:59:00.384Z,99735.00
2023-02-21T08:01:27.706Z,99732.38
2023-02-21T08:03:55.146Z,99727.97
2023-02-21T08:06:22.104Z,99729.34
2023-02-21T08:08:49.306Z,99734.94
2023-02-21T08:11:16.449Z,99733.19
2023-02-21T08:13:43.979Z,99738.81
2023-02-21T08:16:13.328Z,99728.84
2023-02-21T08:18:40.590Z,99729.03
2023-02-21T08:21:09.343Z,99733.38
2023-02-21T08:23:36.885Z,99737.19
2023-02-21T08:26:04.601Z,99740.22
2023-02-21T08:28:31.923Z,99749.38
2023-02-21T08:30:59.173Z,99745.91
2023-02-21T08:33:30.127Z,99748.72
2023-02-21T08:35:58.402Z,99751.19
2023-02-21T08:38:25.623Z,99755.69
2023-02-21T08:40:52.854Z,99764.34
2023-02-21T08:43:20.018Z,99761.31
2023-02-21T08:45:47.063Z,99761.13
2023-02-21T08:48:14.336Z,99763.19
2023-02-21T08:50:41.337Z,99761.63
2023-02-21T08:53:08.551Z,99754.31
2023-02-21T08:55:35.441Z,99770.47
2023-02-21T08:58:02.960Z,99755.13
2023-02-21T09:00:32.208Z,99759.31
2023-02-21T09:03:02.437Z,99759.66
2023-02-21T09:05:31.439Z,99748.59
2023-02-21T09:08:01.464Z,99756.63
2023-02-21T09:10:29.842Z,99743.44
2023-02-21T09:12:57.054Z,99744.13
2023-02-21T09:15:26.360Z,99743.44
2023-02-21T09:17:54.674Z,99746.22
2023-02-21T09:20:23.103Z,99737.50
2023-02-21T09:22:50.816Z,99740.63
2023-02-21T09:25:19.668Z,99738.63
2023-02-21T09:27:46.886Z,99740.72
2023-02-21T09:30:16.714Z,99741.28
2023-02-21T09:32:44.331Z,99739.97
2023-02-21T09:35:14.069Z,99730.16
2023-02-21T09:37:41.979Z,99732.94
2023-02-21T09:40:41.467Z,99729.97
2023-02-21T09:43:16.368Z,99727.78
2023-02-21T09:45:44.871Z,99716.63
2023-02-21T09:48:14.282Z,99721.81
2023-02-21T09:50:46.963Z,99724.19
2023-02-21T09:53:16.432Z,99726.44
2023-02-21T09:55:43.355Z,99720.38
2023-02-21T09:58:15.081Z,99718.06
2023-02-21T10:00:45.411Z,99723.75
2023-02-21T10:03:19.868Z,99726.94
2023-02-21T10:06:08.476Z,99731.59
2023-02-21T10:08:48.686Z,99739.25
2023-02-21T10:11:31.459Z,99737.75
2023-02-21T10:14:18.822Z,99727.19
2023-02-21T10:16:45.808Z,99722.66
2023-02-21T10:19:18.849Z,99738.13
2023-02-21T10:21:46.979Z,99729.56
2023-02-21T10:24:20.300Z,99725.19
2023-02-21T10:26:52.294Z,99722.53
2023-02-21T10:29:24.775Z,99721.81
2023-02-21T10:32:02.505Z,99721.69
2023-02-21T10:34:32.358Z,99710.16
2023-02-21T10:37:06.594Z,99715.22
2023-02-21T10:39:42.252Z,99711.69
2023-02-21T10:42:15.760Z,99712.69
2023-02-21T10:44:43.469Z,99708.19
2023-02-21T10:47:22.755Z,99702.06
2023-02-21T10:49:59.988Z,99695.78
2023-02-21T10:52:29.641Z,99685.41
2023-02-21T10:59:06.026Z,99694.75
2023-02-21T11:01:44.288Z,99697.59
2023-02-21T11:04:20.651Z,99691.41
2023-02-21T11:07:05.437Z,99681.56
2023-02-21T11:09:42.965Z,99689.94
2023-02-21T11:12:18.104Z,99684.22
2023-02-21T11:14:51.055Z,99681.22
2023-02-21T11:18:00.061Z,99686.59
2023-02-21T11:20:29.436Z,99689.75
2023-02-21T11:22:56.667Z,99681.97
2023-02-21T11:25:23.546Z,99678.81
2023-02-21T11:28:18.560Z,99681.75
2023-02-21T11:30:50.651Z,99678.44
2023-02-21T11:33:26.556Z,99675.03
2023-02-21T11:36:08.729Z,99678.38
2023-02-21T11:38:43.777Z,99660.72
2023-02-21T11:41:27.399Z,99661.63
2023-02-21T11:43:55.955Z,99657.22
2023-02-21T11:46:38.185Z,99666.13
2023-02-21T11:49:14.500Z,99670.22
2023-02-21T11:51:44.482Z,99659.59
2023-02-21T11:54:14.013Z,99676.91
2023-02-21T11:56:51.065Z,99670.03
2023-02-21T11:59:25.819Z,99665.56
2023-02-21T12:02:12.676Z,99662.16
2023-02-21T12:04:58.847Z,99657.44
2023-02-21T12:07:29.418Z,99662.38
2023-02-21T12:10:02.383Z,99657.72
2023-02-21T12:12:39.949Z,99658.94
2023-02-21T12:15:19.263Z,99654.88
2023-02-21T12:17:54.490Z,99640.78
2023-02-21T12:20:57.337Z,99641.75
2023-02-21T12:23:29.304Z,99635.69
2023-02-21T12:26:15.395Z,99634.81
2023-02-21T12:29:04.957Z,99636.91
2023-02-21T12:31:58.963Z,99638.91
2023-02-21T12:34:44.992Z,99620.41
2023-02-21T12:37:18.277Z,99620.03
2023-02-21T12:40:00.801Z,99611.44
2023-02-21T12:42:35.276Z,99609.59
2023-02-21T12:45:05.231Z,99617.09
2023-02-21T12:47:46.954Z,99608.53
2023-02-21T12:50:23.323Z,99610.72
2023-02-21T12:53:02.825Z,99594.38
2023-02-21T12:55:40.867Z,99602.28
2023-02-21T12:58:14.214Z,99593.31
2023-02-21T13:00:41.295Z,99585.47
2023-02-21T13:03:27.754Z,99592.56
2023-02-21T13:06:02.642Z,99582.28
2023-02-21T13:08:34.010Z,99579.88
2023-02-21T13:11:13.576Z,99572.22
2023-02-21T13:13:41.055Z,99566.47
2023-02-21T13:16:12.911Z,99569.09
2023-02-21T13:18:42.585Z,99569.66
2023-02-21T13:21:28.279Z,99556.59
2023-02-21T13:23:59.164Z,99555.41
2023-02-21T13:26:35.453Z,99560.31
2023-02-21T13:29:03.047Z,99567.06
2023-02-21T13:31:39.699Z,99561.66
2023-02-21T13:34:09.028Z,99570.97
2023-02-21T13:36:39.017Z,99570.97
2023-02-21T13:39:09.369Z,99573.97
2023-02-21T13:41:56.554Z,99575.06
2023-02-21T13:44:31.702Z,99573.97
2023-02-21T13:47:04.092Z,99577.31
2023-02-21T13:49:37.479Z,99570.97
2023-02-21T13:52:26.489Z,99579.53
2023-02-21T13:55:15.125Z,99573.22
2023-02-21T13:57:43.845Z,99573.59
2023-02-21T14:00:25.469Z,99567.63
2023-02-21T14:02:55.574Z,99570.22
2023-02-21T14:05:23.928Z,99572.84
2023-02-21T14:07:57.150Z,99576.19
2023-02-21T14:10:27.068Z,99565.38
2023-02-21T14:12:55.401Z,99556.63
2023-02-21T14:15:22.721Z,99561.66
2023-02-21T14:17:52.784Z,99567.22
2023-02-21T14:20:22.198Z,99555.31
2023-02-21T14:22:50.501Z,99561.41
2023-02-21T14:25:21.210Z,99559.38
2023-02-21T14:27:48.166Z,99557.91
2023-02-21T14:30:22.554Z,99552.69
2023-02-21T14:32:51.433Z,99555.31
2023-02-21T14:35:21.598Z,99560.16
2023-02-21T14:37:57.776Z,99553.47
2023-02-21T14:40:28.881Z,99552.19
2023-02-21T14:43:23.345Z,99553.84
2023-02-21T14:45:50.625Z,99562.03
2023-02-21T14:48:36.355Z,99552.94
2023-02-21T14:51:12.929Z,99559.44
2023-02-21T14:53:58.449Z,99562.41
2023-02-21T14:56:37.439Z,99553.47
2023-02-21T14:59:23.181Z,99552.91
2023-02-21T15:02:01.613Z,99553.47
2023-02-21T15:04:28.575Z,99549.16
2023-02-21T15:07:07.888Z,99550.88
2023-02-21T15:09:34.774Z,99547.88
2023-02-21T15:12:03.723Z,99540.81
2023-02-21T15:14:35.442Z,99540.81
2023-02-21T15:17:12.173Z,99544.13
2023-02-21T15:19:39.218Z,99537.81
2023-02-21T15:22:07.774Z,99538.34
2023-02-21T15:24:34.704Z,99532.19
2023-02-21T15:27:09.811Z,99535.53
2023-02-21T15:29:36.739Z,99537.59
2023-02-21T15:32:05.143Z,99534.75
2023-02-21T15:34:43.384Z,99540.50
2023-02-21T15:37:19.538Z,99534.13
2023-02-21T15:39:55.877Z,99539.72
2023-02-21T15:42:24.287Z,99534.09
2023-02-21T15:44:53.623Z,99527.75
2023-02-21T15:47:24.280Z,99539.47
2023-02-21T15:50:08.166Z,99542.97
2023-02-21T15:52:35.527Z,99540.53
2023-02-21T15:55:20.988Z,99546.09
2023-02-21T15:58:00.630Z,99539.94
2023-02-21T16:00:37.107Z,99540.84
2023-02-21T16:03:23.862Z,99541.75
2023-02-21T16:05:51.496Z,99546.75
2023-02-21T16:08:19.855Z,99545.22
2023-02-21T16:10:49.279Z,99557.22
2023-02-21T16:13:17.875Z,99552.19
2023-02-21T16:15:45.082Z,99560.53
2023-02-21T16:18:18.365Z,99562.50
2023-02-21T16:20:58.722Z,99564.69
2023-02-21T16:23:31.003Z,99566.50
2023-02-21T16:26:08.696Z,99575.00
2023-02-21T16:28:36.680Z,99570.88
2023-02-21T16:31:08.035Z,99569.88
2023-02-21T16:33:35.910Z,99579.75
2023-02-21T16:36:07.341Z,99582.56
2023-02-21T16:38:34.699Z,99578.56
2023-02-21T16:41:02.280Z,99578.69
2023-02-21T16:43:29.978Z,99571.56
2023-02-21T16:45:58.134Z,99588.09
2023-02-21T16:48:28.852Z,99585.53
2023-02-21T16:50:57.305Z,99588.91
2023-02-21T16:53:24.560Z,99591.91
2023-02-21T16:55:53.327Z,99599.47
2023-02-21T16:58:22.984Z,99608.88
2023-02-21T17:00:52.903Z,99616.25
2023-02-21T17:03:20.594Z,99612.16
2023-02-21T17:05:48.012Z,99611.66
2023-02-21T17:08:20.872Z,99613.06
2023-02-21T17:10:48.167Z,99614.97
2023-02-21T17:13:16.327Z,99616.66
2023-02-21T17:15:48.054Z,99620.84
2023-02-21T17:18:16.387Z,99621.16
2023-02-21T17:20:47.939Z,99613.16
2023-02-21T17:23:15.747Z,99616.25
2023-02-21T17:25:44.385Z,99619.94
2023-02-21T17:28:12.279Z,99614.06
2023-02-21T17:30:40.399Z,99618.75
2023-02-21T17:33:11.328Z,99621.81
2023-02-21T17:35:38.739Z,99628.22
2023-02-21T17:38:07.483Z,99622.38
2023-02-21T17:40:34.781Z,99622.56
2023-02-21T17:43:03.634Z,99625.38
2023-02-21T17:45:31.836Z,99632.25
2023-02-21T17:48:03.183Z,99629.72
2023-02-21T17:50:30.567Z,99627.84
2023-02-21T17:53:00.664Z,99629.81
2023-02-21T17:55:30.569Z,99637.50
2023-02-21T17:58:02.581Z,99627.78
2023-02-21T18:00:34.278Z,99632.88
2023-02-21T18:03:04.712Z,99631.66
2023-02-21T18:05:38.187Z,99628.91
2023-02-21T18:08:07.208Z,99632.94
2023-02-21T18:10:34.821Z,99632.44
2023-02-21T18:13:02.895Z,99640.44
2023-02-21T18:15:32.742Z,99636.38
2023-02-21T18:18:06.963Z,99639.63
2023-02-21T18:20:37.211Z,99643.06
2023-02-21T18:23:09.441Z,99642.56
2023-02-21T18:25:40.177Z,99642.03
2023-02-21T18:28:09.932Z,99637.44
2023-02-21T18:30:37.203Z,99645.22
2023-02-21T18:33:05.850Z,99637.91
2023-02-21T18:35:33.311Z,99646.97
2023-02-21T18:38:02.494Z,99650.47
2023-02-21T18:40:38.196Z,99641.44
2023-02-21T18:43:07.178Z,99649.75
2023-02-21T18:45:34.681Z,99646.22
2023-02-21T18:48:08.369Z,99652.28
2023-02-21T18:50:37.957Z,99641.44
2023-02-21T18:53:07.417Z,99648.97
2023-02-21T18:55:35.312Z,99648.97
2023-02-21T18:58:04.596Z,99651.00
2023-02-21T19:00:34.417Z,99653.75
2023-02-21T19:03:03.539Z,99652.50
2023-02-21T19:05:31.878Z,99652.50
2023-02-21T19:08:02.433Z,99660.59
2023-02-21T19:10:30.857Z,99657.28
2023-02-21T19:13:02.409Z,99660.59
2023-02-21T19:15:36.455Z,99660.81
2023-02-21T19:18:05.491Z,99666.59
2023-02-21T19:20:33.558Z,99661.78
2023-02-21T19:23:02.196Z,99659.75
2023-02-21T19:25:31.689Z,99668.31
2023-02-21T19:28:02.558Z,99671.53
2023-02-21T19:30:38.663Z,99676.03
2023-02-21T19:33:07.759Z,99671.25
2023-02-21T19:35:35.838Z,99679.56
2023-02-21T19:38:08.259Z,99681.78
2023-02-21T19:40:36.623Z,99679.03
2023-02-21T19:43:08.177Z,99677.28
2023-02-21T19:45:38.976Z,99679.03
2023-02-21T19:48:10.430Z,99682.31
2023-02-21T19:50:38.436Z,99688.38
2023-02-21T19:53:08.888Z,99690.41
2023-02-21T19:55:36.729Z,99688.38
2023-02-21T19:58:10.572Z,99685.81
2023-02-21T20:00:40.166Z,99690.09
2023-02-21T20:03:08.583Z,99686.50
2023-02-21T20:05:38.859Z,99680.66
2023-02-21T20:08:09.353Z,99690.34
2023-02-21T20:10:37.391Z,99687.56
2023-02-21T20:13:07.956Z,99685.81
2023-02-21T20:15:36.184Z,99683.50
2023-02-21T20:18:04.645Z,99686.75
2023-02-21T20:20:32.667Z,99687.56
2023-02-21T20:23:02.359Z,99686.94
2023-02-21T20:25:35.242Z,99691.22
2023-02-21T20:28:04.448Z,99696.16
2023-02-21T20:30:32.211Z,99688.81
2023-02-21T20:33:01.823Z,99696.41
2023-02-21T20:35:30.250Z,99680.72
2023-02-21T20:38:02.774Z,99689.19
2023-02-21T20:40:30.655Z,99692.56
2023-02-21T20:42:59.545Z,99699.25
2023-02-21T20:45:27.761Z,99687.94
2023-02-21T20:47:58.395Z,99683.56
2023-02-21T20:50:26.451Z,99692.19
2023-02-21T20:52:55.227Z,99684.16
2023-02-21T20:55:25.775Z,99685.00
2023-02-21T20:57:54.276Z,99687.25
2023-02-21T21:00:23.793Z,99687.47
2023-02-21T21:02:53.152Z,99688.47
2023-02-21T21:05:21.652Z,99689.22
2023-02-21T21:07:56.187Z,99687.56
2023-02-21T21:10:24.744Z,99692.66
2023-02-21T21:12:55.400Z,99689.06
2023-02-21T21:15:24.105Z,99684.41
2023-02-21T21:17:53.364Z,99688.75
2023-02-21T21:20:22.871Z,99687.53
2023-02-21T21:22:51.144Z,99691.34
2023-02-21T21:25:18.796Z,99692.13
2023-02-21T21:27:49.528Z,99693.00
2023-02-21T21:30:23.498Z,99683.75
2023-02-21T21:32:51.922Z,99687.34
2023-02-21T21:35:20.373Z,99689.41
2023-02-21T21:37:51.810Z,99686.19
2023-02-21T21:40:21.950Z,99686.69
2023-02-21T21:42:59.415Z,99679.13
2023-02-21T21:45:29.161Z,99679.06
2023-02-21T21:48:00.510Z,99674.34
2023-02-21T21:50:27.891Z,99681.97
2023-02-21T21:52:58.770Z,99681.97
2023-02-21T21:55:27.984Z,99679.78
2023-02-21T21:57:55.966Z,99677.38
2023-02-21T22:00:27.388Z,99673.66
2023-02-21T22:02:57.688Z,99678.75
2023-02-21T22:05:28.787Z,99677.31
2023-02-21T22:07:56.756Z,99675.56
2023-02-21T22:10:25.010Z,99678.31
2023-02-21T22:12:53.334Z,99670.31
2023-02-21T22:15:21.434Z,99670.06
2023-02-21T22:17:48.748Z,99670.31
2023-02-21T22:20:19.843Z,99673.34
2023-02-21T22:22:49.109Z,99675.31
2023-02-21T22:25:19.925Z,99679.06
2023-02-21T22:27:47.986Z,99674.13
2023-02-21T22:30:16.188Z,99670.88
2023-02-21T22:32:43.643Z,99676.97
2023-02-21T22:35:18.347Z,99674.75
2023-02-21T22:37:47.582Z,99672.75
2023-02-21T22:40:18.028Z,99668.78
2023-02-21T22:42:45.545Z,99667.56
2023-02-21T22:45:12.763Z,99674.13
2023-02-21T22:47:40.622Z,99665.59
2023-02-21T22:50:07.626Z,99665.63
2023-02-21T22:52:34.896Z,99667.19
2023-02-21T22:55:01.816Z,99665.75
2023-02-21T22:57:29.109Z,99664.31
2023-02-21T22:59:57.900Z,99670.84
2023-02-21T23:02:25.468Z,99659.31
2023-02-21T23:04:52.582Z,99658.13
2023-02-21T23:07:24.668Z,99665.72
2023-02-21T23:09:52.347Z,99668.50
2023-02-21T23:12:19.600Z,99667.00
2023-02-21T23:14:48.201Z,99668.25
2023-02-21T23:17:15.593Z,99671.78
2023-02-21T23:19:44.789Z,99674.53
2023-02-21T23:22:11.936Z,99681.53
2023-02-21T23:24:38.825Z,99665.56
2023-02-21T23:27:09.103Z,99669.28
2023-02-21T23:29:36.078Z,99669.50
2023-02-21T23:32:09.725Z,99670.19
2023-02-21T23:34:40.678Z,99673.09
2023-02-21T23:37:15.392Z,99672.34
2023-02-21T23:39:46.737Z,99674.88
2023-02-21T23:42:17.540Z,99668.88
2023-02-21T23:44:45.266Z,99667.19
2023-02-21T23:47:13.915Z,99675.50
2023-02-21T23:49:44.301Z,99668.53
2023-02-21T23:52:11.850Z,99671.03
2023-02-21T23:54:40.278Z,99675.63
2023-02-21T23:57:07.789Z,99669.13
2023-02-21T23:59:35.502Z,99671.44
